createdAt,value
2023-12-18T00:05:42.170Z,153.50
2023-12-18T00:08:44.726Z,152.27
2023-12-18T00:11:46.703Z,148.60
2023-12-18T00:14:48.734Z,156.88
2023-12-18T00:17:51.357Z,162.15
2023-12-18T00:20:53.402Z,161.70
2023-12-18T00:23:56.036Z,154.95
2023-12-18T00:26:58.066Z,157.20
2023-12-18T00:30:00.162Z,155.25
2023-12-18T00:33:03.491Z,155.75
2023-12-18T00:39:08.010Z,156.20
2023-12-18T00:42:10.116Z,156.85
2023-12-18T00:45:12.181Z,162.32
2023-12-18T00:48:15.255Z,162.32
2023-12-18T00:51:17.439Z,155.88
2023-12-18T00:54:19.501Z,155.25
2023-12-18T00:57:21.638Z,156.70
2023-12-18T01:00:23.836Z,155.63
2023-12-18T01:03:26.692Z,162.35
2023-12-18T01:06:31.207Z,158.88
2023-12-18T01:09:33.329Z,162.40
2023-12-18T01:12:36.141Z,159.63
2023-12-18T01:15:38.314Z,161.23
2023-12-18T01:18:41.998Z,159.82
2023-12-18T01:21:44.139Z,157.48
2023-12-18T01:24:46.171Z,166.60
2023-12-18T01:27:48.222Z,154.50
2023-12-18T01:30:52.792Z,167.57
2023-12-18T01:33:55.316Z,159.35
2023-12-18T01:36:59.552Z,158.07
2023-12-18T01:40:01.578Z,156.43
2023-12-18T01:43:03.758Z,161.13
2023-12-18T01:46:06.741Z,159.48
2023-12-18T01:49:10.201Z,159.10
2023-12-18T01:52:12.666Z,160.38
2023-12-18T01:55:16.074Z,157.00
2023-12-18T01:58:18.685Z,163.63
2023-12-18T02:01:20.838Z,164.07
2023-12-18T02:04:24.742Z,155.02
2023-12-18T02:07:28.147Z,154.48
2023-12-18T02:10:31.032Z,159.40
2023-12-18T02:13:33.145Z,153.75
2023-12-18T02:16:35.174Z,157.77
2023-12-18T02:19:37.249Z,156.65
2023-12-18T02:22:59.629Z,159.65
2023-12-18T02:26:01.631Z,157.43
2023-12-18T02:29:03.883Z,162.63
2023-12-18T02:32:06.112Z,167.02
2023-12-18T02:35:09.064Z,156.35
2023-12-18T02:38:11.349Z,158.68
2023-12-18T02:41:13.372Z,153.50
2023-12-18T02:44:17.833Z,156.90
2023-12-18T02:47:19.843Z,158.38
2023-12-18T02:50:22.043Z,162.38
2023-12-18T02:53:27.129Z,159.85
2023-12-18T02:56:29.085Z,160.85
2023-12-18T02:59:31.662Z,159.27
2023-12-18T03:02:34.167Z,156.77
2023-12-18T03:05:36.438Z,159.68
2023-12-18T03:08:38.415Z,160.20
2023-12-18T03:11:42.271Z,161.00
2023-12-18T03:14:44.254Z,158.18
2023-12-18T03:17:46.581Z,154.20
2023-12-18T03:20:49.783Z,162.02
2023-12-18T03:23:51.942Z,161.60
2023-12-18T03:26:54.487Z,163.30
2023-12-18T03:29:58.826Z,156.68
2023-12-18T03:33:01.071Z,159.95
2023-12-18T03:36:04.279Z,160.88
2023-12-18T03:42:08.508Z,156.00
2023-12-18T03:45:10.709Z,155.98
2023-12-18T03:48:12.842Z,161.27
2023-12-18T03:51:18.293Z,158.23
2023-12-18T03:54:20.354Z,156.90
2023-12-18T03:57:22.483Z,160.25
2023-12-18T04:00:24.502Z,160.98
2023-12-18T04:03:26.746Z,161.98
2023-12-18T04:06:29.182Z,158.95
2023-12-18T04:09:31.270Z,165.50
2023-12-18T04:12:33.330Z,161.20
2023-12-18T04:15:35.542Z,165.52
2023-12-18T04:18:38.246Z,157.80
2023-12-18T04:21:40.440Z,163.57
2023-12-18T04:24:42.521Z,163.40
2023-12-18T04:27:47.226Z,158.10
2023-12-18T04:30:49.377Z,154.63
2023-12-18T04:33:53.809Z,160.50
2023-12-18T04:36:55.895Z,160.63
2023-12-18T04:39:58.216Z,160.00
2023-12-18T04:43:00.225Z,156.05
2023-12-18T04:46:02.530Z,157.43
2023-12-18T04:49:05.836Z,152.32
2023-12-18T04:52:07.972Z,150.00
2023-12-18T04:55:10.280Z,149.20
2023-12-18T04:58:12.715Z,148.00
2023-12-18T05:01:16.440Z,157.18
2023-12-18T05:04:18.745Z,153.98
2023-12-18T05:07:21.375Z,150.55
2023-12-18T05:10:23.533Z,151.35
2023-12-18T05:13:25.516Z,149.00
2023-12-18T05:16:27.875Z,146.88
2023-12-18T05:19:29.970Z,147.65
2023-12-18T05:22:32.052Z,149.75
2023-12-18T05:25:33.994Z,154.70
2023-12-18T05:28:36.031Z,157.00
2023-12-18T05:31:38.133Z,151.85
2023-12-18T05:34:40.278Z,153.35
2023-12-18T05:37:42.884Z,155.40
2023-12-18T05:40:45.001Z,152.43
2023-12-18T05:43:46.994Z,152.63
2023-12-18T05:46:49.011Z,157.00
2023-12-18T05:49:53.642Z,157.05
2023-12-18T05:52:58.277Z,145.73
2023-12-18T05:56:00.353Z,145.02
2023-12-18T05:59:02.380Z,145.70
2023-12-18T06:02:04.566Z,143.95
2023-12-18T06:05:08.557Z,143.02
2023-12-18T06:08:10.981Z,144.63
2023-12-18T06:11:12.992Z,145.63
2023-12-18T06:14:15.063Z,144.45
2023-12-18T06:17:17.151Z,162.40
2023-12-18T06:20:19.927Z,147.75
2023-12-18T06:23:22.332Z,152.68
2023-12-18T06:26:24.478Z,144.20
2023-12-18T06:29:31.887Z,151.98
2023-12-18T06:32:33.981Z,151.18
2023-12-18T06:35:36.331Z,146.73
2023-12-18T06:38:38.345Z,146.35
2023-12-18T06:41:40.626Z,151.60
2023-12-18T06:44:42.879Z,148.18
2023-12-18T06:47:44.946Z,141.52
2023-12-18T06:50:46.960Z,144.70
2023-12-18T06:53:48.983Z,143.52
2023-12-18T06:56:51.017Z,143.80
2023-12-18T06:59:53.168Z,145.48
2023-12-18T07:02:55.176Z,149.85
2023-12-18T07:05:57.460Z,155.18
2023-12-18T07:09:02.741Z,145.02
2023-12-18T07:12:05.101Z,140.95
2023-12-18T07:15:08.433Z,145.98
2023-12-18T07:18:10.612Z,140.57
2023-12-18T07:21:12.854Z,145.43
2023-12-18T07:24:15.181Z,142.20
2023-12-18T07:27:17.497Z,145.43
2023-12-18T07:30:20.063Z,147.68
2023-12-18T07:33:22.410Z,145.60
2023-12-18T07:36:24.602Z,143.98
2023-12-18T07:39:29.214Z,143.50
2023-12-18T07:42:31.735Z,141.63
2023-12-18T07:45:34.429Z,146.65
2023-12-18T07:48:39.493Z,144.93
2023-12-18T07:51:42.217Z,144.77
2023-12-18T07:54:44.355Z,148.85
2023-12-18T07:57:46.635Z,144.05
2023-12-18T08:00:51.430Z,142.07
2023-12-18T08:03:53.544Z,139.60
2023-12-18T08:06:55.548Z,140.82
2023-12-18T08:09:57.655Z,139.43
2023-12-18T08:12:59.683Z,143.98
2023-12-18T08:16:01.689Z,139.70
2023-12-18T08:19:04.285Z,149.13
2023-12-18T08:22:06.375Z,146.95
2023-12-18T08:25:09.403Z,140.77
2023-12-18T08:28:11.530Z,143.10
2023-12-18T08:31:13.811Z,142.02
2023-12-18T08:34:16.057Z,142.88
2023-12-18T08:37:18.070Z,139.45
2023-12-18T08:40:20.115Z,150.18
2023-12-18T08:43:22.086Z,155.73
2023-12-18T08:46:24.112Z,147.68
2023-12-18T08:49:26.194Z,142.10
2023-12-18T08:52:28.286Z,141.98
2023-12-18T08:55:30.296Z,142.82
2023-12-18T08:58:32.276Z,145.63
2023-12-18T09:01:37.901Z,142.77
2023-12-18T09:04:40.173Z,146.82
2023-12-18T09:07:42.266Z,151.02
2023-12-18T09:10:48.019Z,150.48
2023-12-18T09:13:51.514Z,151.30
2023-12-18T09:16:54.428Z,152.82
2023-12-18T09:19:56.475Z,149.93
2023-12-18T09:22:58.534Z,151.60
2023-12-18T09:26:00.512Z,154.13
2023-12-18T09:29:03.027Z,154.27
2023-12-18T09:32:05.509Z,158.18
2023-12-18T09:35:08.505Z,157.05
2023-12-18T09:38:12.143Z,148.35
2023-12-18T09:41:25.686Z,149.05
2023-12-18T09:44:27.777Z,150.65
2023-12-18T09:47:30.149Z,150.25
2023-12-18T09:50:32.157Z,150.48
2023-12-18T09:53:34.376Z,145.40
2023-12-18T09:56:37.313Z,144.00
2023-12-18T09:59:39.343Z,149.20
2023-12-18T10:02:45.590Z,148.65
2023-12-18T10:05:48.020Z,148.50
2023-12-18T10:08:53.199Z,144.38
2023-12-18T10:11:55.240Z,146.10
2023-12-18T10:14:57.205Z,141.77
2023-12-18T10:17:59.308Z,149.88
2023-12-18T10:21:01.991Z,141.00
2023-12-18T10:24:04.234Z,148.82
2023-12-18T10:27:06.191Z,143.32
2023-12-18T10:30:09.776Z,141.75
2023-12-18T10:33:14.038Z,140.55
2023-12-18T10:36:17.545Z,136.68
2023-12-18T10:39:22.895Z,135.93
2023-12-18T10:42:38.567Z,138.88
2023-12-18T10:45:42.231Z,136.40
2023-12-18T10:48:49.904Z,137.20
2023-12-18T10:51:53.426Z,137.63
2023-12-18T10:54:59.044Z,138.77
2023-12-18T10:58:03.146Z,142.27
2023-12-18T11:01:06.468Z,139.45
2023-12-18T11:04:10.869Z,144.15
2023-12-18T11:07:15.021Z,142.32
2023-12-18T11:10:17.336Z,148.15
2023-12-18T11:13:30.744Z,141.30
2023-12-18T11:16:55.325Z,139.60
2023-12-18T11:20:23.743Z,148.77
2023-12-18T11:23:28.684Z,142.10
2023-12-18T11:26:31.746Z,139.98
2023-12-18T11:29:36.795Z,143.07
2023-12-18T11:32:47.647Z,146.13
2023-12-18T11:35:50.622Z,150.73
2023-12-18T11:41:55.715Z,158.57
2023-12-18T11:45:04.379Z,154.82
2023-12-18T11:48:07.339Z,154.35
2023-12-18T12:03:27.293Z,147.15
2023-12-18T12:06:29.975Z,154.45
2023-12-18T12:12:42.623Z,157.60
2023-12-18T12:15:53.040Z,155.65
2023-12-18T12:18:57.795Z,154.82
2023-12-18T12:21:59.915Z,156.43
2023-12-18T12:25:02.376Z,160.73
2023-12-18T12:28:04.830Z,154.38
2023-12-18T12:31:07.232Z,153.43
2023-12-18T12:34:13.202Z,151.35
2023-12-18T12:37:15.978Z,154.98
2023-12-18T12:43:20.042Z,157.48
2023-12-18T12:46:26.952Z,154.90
2023-12-18T12:49:37.022Z,158.93
2023-12-18T12:52:41.327Z,154.32
2023-12-18T12:55:43.517Z,153.68
2023-12-18T12:58:45.518Z,153.85
2023-12-18T13:01:47.510Z,154.75
2023-12-18T13:04:50.101Z,155.38
2023-12-18T13:07:52.257Z,160.60
2023-12-18T13:10:59.005Z,159.48
2023-12-18T13:14:09.145Z,159.80
2023-12-18T13:17:16.930Z,160.32
2023-12-18T13:20:27.349Z,158.23
2023-12-18T13:23:30.923Z,160.15
2023-12-18T13:26:33.028Z,155.52
2023-12-18T13:29:35.100Z,154.75
2023-12-18T13:32:37.665Z,154.05
2023-12-18T13:35:39.763Z,154.20
2023-12-18T13:38:41.774Z,152.32
2023-12-18T13:41:44.316Z,153.65
2023-12-18T13:44:46.280Z,154.13
2023-12-18T13:47:54.080Z,152.45
2023-12-18T13:50:59.618Z,150.73
2023-12-18T13:54:02.000Z,151.90
2023-12-18T13:57:04.147Z,151.50
2023-12-18T14:00:06.800Z,149.35
2023-12-18T14:03:09.196Z,151.23
2023-12-18T14:06:11.426Z,150.85
2023-12-18T14:09:13.533Z,156.65
2023-12-18T14:12:15.838Z,156.18
2023-12-18T14:15:19.183Z,151.68
2023-12-18T14:18:21.488Z,151.35
2023-12-18T14:21:23.889Z,151.07
2023-12-18T14:24:25.937Z,151.00
2023-12-18T14:27:28.001Z,152.20
2023-12-18T14:30:30.160Z,151.45
2023-12-18T14:33:32.377Z,154.27
2023-12-18T14:36:34.605Z,156.77
2023-12-18T14:39:38.429Z,150.32
2023-12-18T14:42:40.735Z,153.15
2023-12-18T14:45:42.984Z,150.63
2023-12-18T14:48:45.162Z,150.68
2023-12-18T14:51:47.232Z,149.75
2023-12-18T14:54:49.508Z,151.13
2023-12-18T14:57:51.688Z,153.68
2023-12-18T15:00:54.087Z,157.55
2023-12-18T15:03:58.421Z,154.65
2023-12-18T15:07:00.853Z,152.45
2023-12-18T15:10:04.138Z,155.80
2023-12-18T15:13:06.306Z,155.15
2023-12-18T15:16:08.457Z,154.35
2023-12-18T15:19:11.001Z,156.02
2023-12-18T15:22:16.138Z,160.77
2023-12-18T15:25:18.244Z,158.73
2023-12-18T15:28:21.436Z,155.85
2023-12-18T15:31:26.483Z,130.25
2023-12-18T15:34:28.827Z,135.80
2023-12-18T15:37:31.049Z,107.15
2023-12-18T15:40:33.092Z,115.63
2023-12-18T15:43:35.227Z,109.85
2023-12-18T15:46:37.411Z,104.78
2023-12-18T15:49:39.512Z,118.65
2023-12-18T15:52:41.812Z,134.35
2023-12-18T15:55:44.281Z,122.03
2023-12-18T15:58:48.280Z,128.68
2023-12-18T16:01:50.489Z,152.23
2023-12-18T16:04:52.574Z,129.73
2023-12-18T16:07:54.671Z,120.65
2023-12-18T16:10:56.813Z,125.53
2023-12-18T16:13:59.416Z,134.00
2023-12-18T16:17:01.456Z,154.35
2023-12-18T16:20:03.839Z,149.18
2023-12-18T16:23:05.862Z,146.55
2023-12-18T16:26:09.950Z,152.15
2023-12-18T16:29:12.652Z,152.90
2023-12-18T16:32:14.967Z,151.77
2023-12-18T16:35:19.649Z,152.52
2023-12-18T16:38:21.949Z,122.80
2023-12-18T16:41:24.007Z,132.00
2023-12-18T16:44:27.293Z,123.82
2023-12-18T16:47:29.349Z,126.07
2023-12-18T16:50:31.424Z,123.63
2023-12-18T16:53:33.568Z,114.68
2023-12-18T16:56:37.214Z,119.70
2023-12-18T16:59:39.932Z,115.95
2023-12-18T17:02:42.435Z,122.40
2023-12-18T17:05:44.819Z,121.90
2023-12-18T17:08:57.180Z,120.10
2023-12-18T17:11:59.260Z,123.95
2023-12-18T17:15:01.208Z,121.07
2023-12-18T17:18:03.307Z,119.05
2023-12-18T17:21:05.721Z,125.07
2023-12-18T17:24:07.973Z,124.57
2023-12-18T17:27:09.969Z,127.07
2023-12-18T17:30:12.765Z,132.18
2023-12-18T17:33:15.276Z,134.55
2023-12-18T17:36:18.230Z,131.85
2023-12-18T17:42:22.369Z,136.27
2023-12-18T17:45:24.788Z,132.65
2023-12-18T17:48:27.036Z,133.80
2023-12-18T17:51:29.227Z,132.02
2023-12-18T17:54:31.311Z,139.35
2023-12-18T17:57:33.604Z,137.07
2023-12-18T18:00:35.845Z,131.50
2023-12-18T18:03:38.040Z,130.98
2023-12-18T18:06:40.239Z,129.88
2023-12-18T18:09:42.686Z,131.63
2023-12-18T18:12:44.799Z,132.73
2023-12-18T18:15:46.931Z,128.27
2023-12-18T18:18:49.087Z,132.85
2023-12-18T18:21:51.727Z,140.88
2023-12-18T18:24:55.338Z,132.07
2023-12-18T18:27:57.556Z,129.90
2023-12-18T18:30:59.835Z,130.20
2023-12-18T18:34:02.296Z,132.25
2023-12-18T18:37:04.758Z,130.32
2023-12-18T18:40:07.568Z,127.60
2023-12-18T18:43:09.766Z,131.25
2023-12-18T18:46:17.033Z,135.35
2023-12-18T18:49:19.329Z,135.05
2023-12-18T18:52:21.778Z,131.98
2023-12-18T18:55:26.397Z,133.77
2023-12-18T18:58:28.529Z,132.43
2023-12-18T19:01:30.982Z,128.60
2023-12-18T19:04:36.066Z,133.80
2023-12-18T19:07:38.243Z,131.35
2023-12-18T19:10:40.256Z,139.82
2023-12-18T19:13:42.317Z,135.85
2023-12-18T19:16:44.767Z,135.43
2023-12-18T19:19:46.968Z,139.95
2023-12-18T19:22:48.980Z,125.90
2023-12-18T19:25:51.132Z,128.07
2023-12-18T19:28:53.689Z,129.05
2023-12-18T19:31:55.923Z,131.45
2023-12-18T19:34:58.053Z,130.35
2023-12-18T19:38:00.182Z,135.45
2023-12-18T19:41:04.694Z,128.52
2023-12-18T19:44:06.725Z,127.55
2023-12-18T19:47:09.113Z,128.13
2023-12-18T19:50:11.620Z,130.23
2023-12-18T19:53:13.858Z,131.55
2023-12-18T19:56:16.011Z,131.73
2023-12-18T19:59:30.544Z,131.13
2023-12-18T20:02:33.850Z,132.55
2023-12-18T20:05:35.872Z,132.35
2023-12-18T20:08:37.896Z,130.30
2023-12-18T20:11:40.031Z,124.72
2023-12-18T20:14:48.218Z,125.68
2023-12-18T20:17:56.222Z,124.47
2023-12-18T20:20:58.416Z,122.30
2023-12-18T20:24:00.542Z,119.70
2023-12-18T20:27:02.872Z,132.63
2023-12-18T20:30:05.378Z,136.90
2023-12-18T20:33:07.441Z,143.73
2023-12-18T20:36:09.507Z,141.13
2023-12-18T20:39:11.659Z,124.43
2023-12-18T20:42:13.827Z,120.35
2023-12-18T20:45:18.496Z,108.35
2023-12-18T20:48:20.668Z,109.88
2023-12-18T20:51:24.965Z,111.35
2023-12-18T20:54:27.243Z,111.80
2023-12-18T20:57:31.291Z,120.03
2023-12-18T21:00:35.952Z,113.15
2023-12-18T21:03:40.355Z,113.43
2023-12-18T21:06:42.916Z,116.35
2023-12-18T21:09:45.208Z,121.53
2023-12-18T21:12:47.657Z,135.75
2023-12-18T21:15:52.070Z,140.20
2023-12-18T21:18:55.522Z,139.73
2023-12-18T21:22:04.900Z,138.23
2023-12-18T21:25:13.385Z,135.98
2023-12-18T21:28:15.875Z,140.40
2023-12-18T21:31:19.544Z,145.32
2023-12-18T21:34:21.726Z,145.77
2023-12-18T21:37:24.245Z,136.73
2023-12-18T21:40:26.425Z,138.95
2023-12-18T21:43:29.955Z,139.88
2023-12-18T21:46:32.601Z,139.07
2023-12-18T21:49:38.950Z,139.60
2023-12-18T21:52:41.537Z,139.30
2023-12-18T21:55:44.294Z,142.52
2023-12-18T21:58:46.309Z,143.15
2023-12-18T22:01:48.987Z,138.45
2023-12-18T22:04:51.338Z,139.95
2023-12-18T22:07:53.356Z,138.52
2023-12-18T22:10:55.512Z,142.32
2023-12-18T22:13:57.944Z,138.43
2023-12-18T22:17:00.232Z,137.45
2023-12-18T22:20:03.316Z,139.43
2023-12-18T22:23:05.524Z,144.85
2023-12-18T22:26:07.914Z,136.32
2023-12-18T22:29:10.144Z,135.65
2023-12-18T22:32:12.266Z,137.70
2023-12-18T22:35:15.911Z,140.45
2023-12-18T22:38:18.470Z,137.52
2023-12-18T22:41:20.445Z,135.32
2023-12-18T22:44:23.175Z,142.20
2023-12-18T22:47:25.258Z,138.85
2023-12-18T22:50:27.276Z,136.80
2023-12-18T22:53:29.440Z,140.63
2023-12-18T22:56:31.746Z,136.73
2023-12-18T22:59:34.056Z,135.63
2023-12-18T23:02:36.650Z,134.63
2023-12-18T23:05:39.029Z,136.13
2023-12-18T23:08:41.683Z,141.63
2023-12-18T23:11:43.827Z,145.70
2023-12-18T23:14:46.056Z,135.63
2023-12-18T23:17:48.484Z,134.05
2023-12-18T23:20:57.627Z,136.25
2023-12-18T23:23:59.945Z,140.10
2023-12-18T23:27:01.984Z,134.38
2023-12-18T23:30:07.215Z,135.30
2023-12-18T23:33:15.275Z,137.30
2023-12-18T23:36:23.535Z,135.88
2023-12-18T23:39:25.651Z,134.90
2023-12-18T23:42:27.717Z,138.10
2023-12-18T23:45:30.139Z,137.68
2023-12-18T23:48:34.617Z,134.63
2023-12-18T23:51:37.176Z,134.82
2023-12-18T23:54:39.271Z,134.40
2023-12-18T23:57:45.189Z,132.45
